sensor_id;sensor_type;location;lat;lon;timestamp;P1;durP1;ratioP1;P2;durP2;ratioP2
21492;SDS011;10908;50.690;4.400;2022-12-07T00:01:22;27.48;;;15.65;;
21492;SDS011;10908;50.690;4.400;2022-12-07T00:03:54;24.30;;;14.55;;
21492;SDS011;10908;50.690;4.400;2022-12-07T00:06:29;29.48;;;14.95;;
21492;SDS011;10908;50.690;4.400;2022-12-07T00:09:03;26.52;;;14.63;;
21492;SDS011;10908;50.690;4.400;2022-12-07T00:11:30;24.30;;;13.88;;
21492;SDS011;10908;50.690;4.400;2022-12-07T00:13:56;25.60;;;15.02;;
21492;SDS011;10908;50.690;4.400;2022-12-07T00:16:24;24.30;;;14.60;;
21492;SDS011;10908;50.690;4.400;2022-12-07T00:18:52;25.33;;;14.45;;
21492;SDS011;10908;50.690;4.400;2022-12-07T00:21:19;26.17;;;14.75;;
21492;SDS011;10908;50.690;4.400;2022-12-07T00:23:52;23.95;;;14.02;;
21492;SDS011;10908;50.690;4.400;2022-12-07T00:26:20;23.73;;;14.52;;
21492;SDS011;10908;50.690;4.400;2022-12-07T00:28:49;25.80;;;14.38;;
21492;SDS011;10908;50.690;4.400;2022-12-07T00:31:17;24.55;;;13.88;;
21492;SDS011;10908;50.690;4.400;2022-12-07T00:33:45;23.90;;;14.15;;
21492;SDS011;10908;50.690;4.400;2022-12-07T00:36:12;26.45;;;14.32;;
21492;SDS011;10908;50.690;4.400;2022-12-07T00:38:39;24.88;;;13.85;;
21492;SDS011;10908;50.690;4.400;2022-12-07T00:41:06;27.88;;;14.75;;
21492;SDS011;10908;50.690;4.400;2022-12-07T00:43:35;26.65;;;13.85;;
21492;SDS011;10908;50.690;4.400;2022-12-07T00:46:01;23.90;;;13.70;;
21492;SDS011;10908;50.690;4.400;2022-12-07T00:48:26;26.98;;;14.52;;
21492;SDS011;10908;50.690;4.400;2022-12-07T00:50:52;25.95;;;14.32;;
21492;SDS011;10908;50.690;4.400;2022-12-07T00:53:18;24.30;;;13.98;;
21492;SDS011;10908;50.690;4.400;2022-12-07T00:55:44;29.30;;;15.23;;
21492;SDS011;10908;50.690;4.400;2022-12-07T00:58:10;29.55;;;14.85;;
21492;SDS011;10908;50.690;4.400;2022-12-07T01:00:37;24.50;;;14.82;;
21492;SDS011;10908;50.690;4.400;2022-12-07T01:03:04;24.35;;;14.25;;
21492;SDS011;10908;50.690;4.400;2022-12-07T01:05:30;28.88;;;14.88;;
21492;SDS011;10908;50.690;4.400;2022-12-07T01:07:56;26.25;;;16.52;;
21492;SDS011;10908;50.690;4.400;2022-12-07T01:10:21;27.10;;;15.00;;
21492;SDS011;10908;50.690;4.400;2022-12-07T01:12:47;26.60;;;15.30;;
21492;SDS011;10908;50.690;4.400;2022-12-07T01:15:13;26.75;;;14.98;;
21492;SDS011;10908;50.690;4.400;2022-12-07T01:17:38;25.60;;;14.77;;
21492;SDS011;10908;50.690;4.400;2022-12-07T01:20:04;27.92;;;15.60;;
21492;SDS011;10908;50.690;4.400;2022-12-07T01:22:30;26.25;;;15.25;;
21492;SDS011;10908;50.690;4.400;2022-12-07T01:24:56;24.60;;;14.10;;
21492;SDS011;10908;50.690;4.400;2022-12-07T01:27:21;26.00;;;13.95;;
21492;SDS011;10908;50.690;4.400;2022-12-07T01:29:47;24.65;;;13.88;;
21492;SDS011;10908;50.690;4.400;2022-12-07T01:32:13;25.70;;;14.13;;
21492;SDS011;10908;50.690;4.400;2022-12-07T01:34:38;25.63;;;14.00;;
21492;SDS011;10908;50.690;4.400;2022-12-07T01:37:04;25.10;;;14.48;;
21492;SDS011;10908;50.690;4.400;2022-12-07T01:39:30;26.70;;;14.75;;
21492;SDS011;10908;50.690;4.400;2022-12-07T01:41:55;26.15;;;14.43;;
21492;SDS011;10908;50.690;4.400;2022-12-07T01:44:25;28.20;;;15.40;;
21492;SDS011;10908;50.690;4.400;2022-12-07T01:46:53;28.67;;;15.18;;
21492;SDS011;10908;50.690;4.400;2022-12-07T01:49:28;24.52;;;14.25;;
21492;SDS011;10908;50.690;4.400;2022-12-07T01:54:40;28.65;;;15.68;;
21492;SDS011;10908;50.690;4.400;2022-12-07T01:57:08;27.50;;;14.90;;
21492;SDS011;10908;50.690;4.400;2022-12-07T01:59:34;29.77;;;15.45;;
21492;SDS011;10908;50.690;4.400;2022-12-07T02:02:00;30.98;;;15.48;;
21492;SDS011;10908;50.690;4.400;2022-12-07T02:04:28;27.10;;;14.35;;
21492;SDS011;10908;50.690;4.400;2022-12-07T02:06:54;29.48;;;15.02;;
21492;SDS011;10908;50.690;4.400;2022-12-07T02:09:22;24.38;;;15.02;;
21492;SDS011;10908;50.690;4.400;2022-12-07T02:11:48;26.50;;;15.40;;
21492;SDS011;10908;50.690;4.400;2022-12-07T02:14:14;29.25;;;14.90;;
21492;SDS011;10908;50.690;4.400;2022-12-07T02:25:15;25.73;;;15.23;;
21492;SDS011;10908;50.690;4.400;2022-12-07T02:28:07;25.95;;;14.43;;
21492;SDS011;10908;50.690;4.400;2022-12-07T02:30:42;26.30;;;13.93;;
21492;SDS011;10908;50.690;4.400;2022-12-07T02:33:14;24.48;;;14.00;;
21492;SDS011;10908;50.690;4.400;2022-12-07T02:38:54;25.30;;;13.73;;
21492;SDS011;10908;50.690;4.400;2022-12-07T02:41:30;23.00;;;13.15;;
21492;SDS011;10908;50.690;4.400;2022-12-07T02:44:17;20.90;;;13.02;;
21492;SDS011;10908;50.690;4.400;2022-12-07T02:46:51;25.42;;;13.73;;
21492;SDS011;10908;50.690;4.400;2022-12-07T02:49:24;26.10;;;14.20;;
21492;SDS011;10908;50.690;4.400;2022-12-07T02:51:51;24.50;;;14.05;;
21492;SDS011;10908;50.690;4.400;2022-12-07T02:54:18;26.80;;;14.23;;
21492;SDS011;10908;50.690;4.400;2022-12-07T03:13:12;24.27;;;13.48;;
21492;SDS011;10908;50.690;4.400;2022-12-07T03:18:49;23.60;;;13.45;;
21492;SDS011;10908;50.690;4.400;2022-12-07T03:21:42;23.77;;;13.02;;
21492;SDS011;10908;50.690;4.400;2022-12-07T03:24:14;21.75;;;12.82;;
21492;SDS011;10908;50.690;4.400;2022-12-07T03:26:44;26.63;;;13.75;;
21492;SDS011;10908;50.690;4.400;2022-12-07T03:29:17;22.45;;;13.43;;
21492;SDS011;10908;50.690;4.400;2022-12-07T03:32:24;23.92;;;12.88;;
21492;SDS011;10908;50.690;4.400;2022-12-07T03:37:37;21.58;;;13.18;;
21492;SDS011;10908;50.690;4.400;2022-12-07T03:40:18;24.92;;;13.45;;
21492;SDS011;10908;50.690;4.400;2022-12-07T03:42:47;21.60;;;12.55;;
21492;SDS011;10908;50.690;4.400;2022-12-07T03:45:13;22.83;;;13.88;;
21492;SDS011;10908;50.690;4.400;2022-12-07T03:50:17;27.75;;;15.27;;
21492;SDS011;10908;50.690;4.400;2022-12-07T03:52:53;37.35;;;16.17;;
21492;SDS011;10908;50.690;4.400;2022-12-07T03:55:34;35.80;;;16.67;;
21492;SDS011;10908;50.690;4.400;2022-12-07T03:58:05;38.22;;;17.27;;
21492;SDS011;10908;50.690;4.400;2022-12-07T04:00:35;34.08;;;16.88;;
21492;SDS011;10908;50.690;4.400;2022-12-07T04:03:01;35.53;;;16.67;;
21492;SDS011;10908;50.690;4.400;2022-12-07T04:05:27;27.38;;;15.35;;
21492;SDS011;10908;50.690;4.400;2022-12-07T04:07:53;28.92;;;14.25;;
21492;SDS011;10908;50.690;4.400;2022-12-07T04:10:18;27.20;;;14.70;;
21492;SDS011;10908;50.690;4.400;2022-12-07T04:12:44;24.90;;;13.88;;
21492;SDS011;10908;50.690;4.400;2022-12-07T04:15:10;22.95;;;13.75;;
21492;SDS011;10908;50.690;4.400;2022-12-07T04:17:36;22.90;;;13.50;;
21492;SDS011;10908;50.690;4.400;2022-12-07T04:20:02;21.45;;;13.10;;
21492;SDS011;10908;50.690;4.400;2022-12-07T04:22:28;22.63;;;13.52;;
21492;SDS011;10908;50.690;4.400;2022-12-07T04:24:54;27.35;;;14.55;;
21492;SDS011;10908;50.690;4.400;2022-12-07T04:27:20;25.38;;;14.25;;
21492;SDS011;10908;50.690;4.400;2022-12-07T04:29:45;22.98;;;13.95;;
21492;SDS011;10908;50.690;4.400;2022-12-07T04:32:11;26.63;;;14.93;;
21492;SDS011;10908;50.690;4.400;2022-12-07T04:34:37;25.60;;;15.13;;
21492;SDS011;10908;50.690;4.400;2022-12-07T04:37:02;26.05;;;15.85;;
21492;SDS011;10908;50.690;4.400;2022-12-07T04:39:28;29.88;;;16.23;;
21492;SDS011;10908;50.690;4.400;2022-12-07T04:41:55;26.50;;;15.90;;
21492;SDS011;10908;50.690;4.400;2022-12-07T04:44:21;25.17;;;14.95;;
21492;SDS011;10908;50.690;4.400;2022-12-07T04:46:48;28.30;;;15.68;;
21492;SDS011;10908;50.690;4.400;2022-12-07T04:49:14;27.70;;;15.43;;
21492;SDS011;10908;50.690;4.400;2022-12-07T04:51:40;27.00;;;15.15;;
21492;SDS011;10908;50.690;4.400;2022-12-07T04:54:07;28.83;;;16.48;;
21492;SDS011;10908;50.690;4.400;2022-12-07T04:56:33;28.50;;;16.23;;
21492;SDS011;10908;50.690;4.400;2022-12-07T04:59:00;29.00;;;16.50;;
21492;SDS011;10908;50.690;4.400;2022-12-07T05:01:26;27.63;;;16.15;;
21492;SDS011;10908;50.690;4.400;2022-12-07T05:03:52;27.02;;;16.10;;
21492;SDS011;10908;50.690;4.400;2022-12-07T05:06:18;29.38;;;16.55;;
21492;SDS011;10908;50.690;4.400;2022-12-07T05:08:44;28.70;;;16.20;;
21492;SDS011;10908;50.690;4.400;2022-12-07T05:11:10;33.28;;;17.17;;
21492;SDS011;10908;50.690;4.400;2022-12-07T05:13:59;25.70;;;16.95;;
21492;SDS011;10908;50.690;4.400;2022-12-07T05:16:25;30.70;;;16.73;;
21492;SDS011;10908;50.690;4.400;2022-12-07T05:18:51;28.08;;;16.85;;
21492;SDS011;10908;50.690;4.400;2022-12-07T05:21:17;27.30;;;17.25;;
21492;SDS011;10908;50.690;4.400;2022-12-07T05:23:43;28.13;;;17.00;;
21492;SDS011;10908;50.690;4.400;2022-12-07T05:26:08;28.17;;;16.63;;
21492;SDS011;10908;50.690;4.400;2022-12-07T05:28:34;30.42;;;17.52;;
21492;SDS011;10908;50.690;4.400;2022-12-07T05:31:00;31.38;;;18.20;;
21492;SDS011;10908;50.690;4.400;2022-12-07T05:33:26;29.83;;;18.17;;
21492;SDS011;10908;50.690;4.400;2022-12-07T05:35:52;35.67;;;17.42;;
21492;SDS011;10908;50.690;4.400;2022-12-07T05:38:17;33.53;;;18.17;;
21492;SDS011;10908;50.690;4.400;2022-12-07T05:40:43;29.38;;;16.67;;
21492;SDS011;10908;50.690;4.400;2022-12-07T05:43:09;30.77;;;17.65;;
21492;SDS011;10908;50.690;4.400;2022-12-07T05:45:35;31.20;;;16.75;;
21492;SDS011;10908;50.690;4.400;2022-12-07T05:48:00;31.95;;;16.60;;
21492;SDS011;10908;50.690;4.400;2022-12-07T05:50:26;26.88;;;15.93;;
21492;SDS011;10908;50.690;4.400;2022-12-07T05:52:52;28.95;;;16.15;;
21492;SDS011;10908;50.690;4.400;2022-12-07T05:55:18;26.58;;;16.17;;
21492;SDS011;10908;50.690;4.400;2022-12-07T05:57:44;29.52;;;16.52;;
21492;SDS011;10908;50.690;4.400;2022-12-07T06:00:30;27.77;;;16.25;;
21492;SDS011;10908;50.690;4.400;2022-12-07T06:02:56;25.63;;;15.15;;
21492;SDS011;10908;50.690;4.400;2022-12-07T06:05:21;25.48;;;15.52;;
21492;SDS011;10908;50.690;4.400;2022-12-07T06:07:47;24.13;;;15.32;;
21492;SDS011;10908;50.690;4.400;2022-12-07T06:10:14;26.92;;;16.15;;
21492;SDS011;10908;50.690;4.400;2022-12-07T06:12:40;23.83;;;14.05;;
21492;SDS011;10908;50.690;4.400;2022-12-07T06:15:08;25.05;;;13.98;;
21492;SDS011;10908;50.690;4.400;2022-12-07T06:17:34;23.30;;;15.07;;
21492;SDS011;10908;50.690;4.400;2022-12-07T06:20:01;20.85;;;13.77;;
21492;SDS011;10908;50.690;4.400;2022-12-07T06:22:26;24.88;;;14.95;;
21492;SDS011;10908;50.690;4.400;2022-12-07T06:24:52;27.38;;;15.23;;
21492;SDS011;10908;50.690;4.400;2022-12-07T06:27:18;27.13;;;14.73;;
21492;SDS011;10908;50.690;4.400;2022-12-07T06:29:43;28.85;;;15.07;;
21492;SDS011;10908;50.690;4.400;2022-12-07T06:32:09;27.60;;;14.77;;
21492;SDS011;10908;50.690;4.400;2022-12-07T06:34:35;26.17;;;14.85;;
21492;SDS011;10908;50.690;4.400;2022-12-07T06:37:00;23.60;;;14.02;;
21492;SDS011;10908;50.690;4.400;2022-12-07T06:39:27;26.83;;;15.35;;
21492;SDS011;10908;50.690;4.400;2022-12-07T06:41:53;25.08;;;15.23;;
21492;SDS011;10908;50.690;4.400;2022-12-07T06:44:20;25.25;;;15.05;;
21492;SDS011;10908;50.690;4.400;2022-12-07T06:46:46;27.45;;;14.65;;
21492;SDS011;10908;50.690;4.400;2022-12-07T06:49:13;27.08;;;14.63;;
21492;SDS011;10908;50.690;4.400;2022-12-07T06:51:38;29.15;;;15.25;;
21492;SDS011;10908;50.690;4.400;2022-12-07T06:54:09;25.25;;;14.82;;
21492;SDS011;10908;50.690;4.400;2022-12-07T06:56:37;24.73;;;15.02;;
21492;SDS011;10908;50.690;4.400;2022-12-07T06:59:03;25.92;;;14.05;;
21492;SDS011;10908;50.690;4.400;2022-12-07T07:01:32;28.05;;;14.93;;
21492;SDS011;10908;50.690;4.400;2022-12-07T07:03:58;26.65;;;15.00;;
21492;SDS011;10908;50.690;4.400;2022-12-07T07:06:24;28.33;;;15.68;;
21492;SDS011;10908;50.690;4.400;2022-12-07T07:08:49;29.70;;;15.40;;
21492;SDS011;10908;50.690;4.400;2022-12-07T07:11:15;26.60;;;15.13;;
21492;SDS011;10908;50.690;4.400;2022-12-07T07:13:41;26.50;;;14.32;;
21492;SDS011;10908;50.690;4.400;2022-12-07T07:16:07;30.23;;;15.30;;
21492;SDS011;10908;50.690;4.400;2022-12-07T07:18:33;26.15;;;14.52;;
21492;SDS011;10908;50.690;4.400;2022-12-07T07:20:58;27.58;;;14.55;;
21492;SDS011;10908;50.690;4.400;2022-12-07T07:23:24;24.45;;;14.43;;
21492;SDS011;10908;50.690;4.400;2022-12-07T07:25:49;25.90;;;14.52;;
21492;SDS011;10908;50.690;4.400;2022-12-07T07:28:15;28.13;;;14.38;;
21492;SDS011;10908;50.690;4.400;2022-12-07T07:30:41;25.77;;;14.50;;
21492;SDS011;10908;50.690;4.400;2022-12-07T07:33:07;26.85;;;15.23;;
21492;SDS011;10908;50.690;4.400;2022-12-07T07:35:34;30.95;;;15.15;;
21492;SDS011;10908;50.690;4.400;2022-12-07T07:38:00;26.65;;;14.40;;
21492;SDS011;10908;50.690;4.400;2022-12-07T07:40:26;29.05;;;15.18;;
21492;SDS011;10908;50.690;4.400;2022-12-07T07:42:54;28.15;;;15.18;;
21492;SDS011;10908;50.690;4.400;2022-12-07T07:45:20;28.58;;;15.13;;
21492;SDS011;10908;50.690;4.400;2022-12-07T07:47:47;29.60;;;15.07;;
21492;SDS011;10908;50.690;4.400;2022-12-07T07:50:14;27.50;;;15.63;;
21492;SDS011;10908;50.690;4.400;2022-12-07T07:52:40;26.67;;;15.55;;
21492;SDS011;10908;50.690;4.400;2022-12-07T07:55:06;29.75;;;15.40;;
21492;SDS011;10908;50.690;4.400;2022-12-07T07:57:33;31.00;;;15.75;;
21492;SDS011;10908;50.690;4.400;2022-12-07T08:00:00;28.77;;;16.58;;
21492;SDS011;10908;50.690;4.400;2022-12-07T08:02:26;29.13;;;15.65;;
21492;SDS011;10908;50.690;4.400;2022-12-07T08:04:54;28.02;;;15.85;;
21492;SDS011;10908;50.690;4.400;2022-12-07T08:07:20;29.40;;;16.08;;
21492;SDS011;10908;50.690;4.400;2022-12-07T08:09:45;28.70;;;15.95;;
21492;SDS011;10908;50.690;4.400;2022-12-07T08:12:11;30.98;;;15.73;;
21492;SDS011;10908;50.690;4.400;2022-12-07T08:14:37;27.60;;;15.52;;
21492;SDS011;10908;50.690;4.400;2022-12-07T08:17:02;28.40;;;16.50;;
21492;SDS011;10908;50.690;4.400;2022-12-07T08:19:28;31.73;;;16.02;;
21492;SDS011;10908;50.690;4.400;2022-12-07T08:21:54;27.42;;;14.85;;
21492;SDS011;10908;50.690;4.400;2022-12-07T08:24:21;28.73;;;14.57;;
21492;SDS011;10908;50.690;4.400;2022-12-07T08:26:47;27.38;;;14.32;;
21492;SDS011;10908;50.690;4.400;2022-12-07T08:29:13;28.65;;;14.13;;
21492;SDS011;10908;50.690;4.400;2022-12-07T08:31:39;26.67;;;14.52;;
21492;SDS011;10908;50.690;4.400;2022-12-07T08:34:04;26.50;;;13.95;;
21492;SDS011;10908;50.690;4.400;2022-12-07T08:36:30;27.17;;;14.02;;
21492;SDS011;10908;50.690;4.400;2022-12-07T08:38:56;26.10;;;14.38;;
21492;SDS011;10908;50.690;4.400;2022-12-07T08:41:21;25.58;;;15.02;;
21492;SDS011;10908;50.690;4.400;2022-12-07T08:43:47;27.27;;;14.63;;
21492;SDS011;10908;50.690;4.400;2022-12-07T08:46:20;24.50;;;14.25;;
21492;SDS011;10908;50.690;4.400;2022-12-07T08:48:57;26.60;;;13.63;;
21492;SDS011;10908;50.690;4.400;2022-12-07T08:51:28;22.70;;;13.43;;
21492;SDS011;10908;50.690;4.400;2022-12-07T08:53:54;25.40;;;13.73;;
21492;SDS011;10908;50.690;4.400;2022-12-07T08:56:23;23.95;;;12.95;;
21492;SDS011;10908;50.690;4.400;2022-12-07T08:58:49;22.00;;;12.65;;
21492;SDS011;10908;50.690;4.400;2022-12-07T09:01:15;24.05;;;13.30;;
21492;SDS011;10908;50.690;4.400;2022-12-07T09:03:41;22.88;;;12.48;;
21492;SDS011;10908;50.690;4.400;2022-12-07T09:06:07;22.17;;;12.05;;
21492;SDS011;10908;50.690;4.400;2022-12-07T09:08:33;24.25;;;12.80;;
21492;SDS011;10908;50.690;4.400;2022-12-07T09:11:04;25.73;;;12.35;;
21492;SDS011;10908;50.690;4.400;2022-12-07T09:13:29;25.13;;;12.45;;
21492;SDS011;10908;50.690;4.400;2022-12-07T09:15:55;21.52;;;12.25;;
21492;SDS011;10908;50.690;4.400;2022-12-07T09:18:21;22.25;;;12.02;;
21492;SDS011;10908;50.690;4.400;2022-12-07T09:20:47;24.50;;;12.20;;
21492;SDS011;10908;50.690;4.400;2022-12-07T09:23:12;27.73;;;11.90;;
21492;SDS011;10908;50.690;4.400;2022-12-07T09:25:38;25.92;;;12.90;;
21492;SDS011;10908;50.690;4.400;2022-12-07T09:28:03;23.45;;;11.75;;
21492;SDS011;10908;50.690;4.400;2022-12-07T09:30:29;19.13;;;11.88;;
21492;SDS011;10908;50.690;4.400;2022-12-07T09:32:56;21.30;;;12.13;;
21492;SDS011;10908;50.690;4.400;2022-12-07T09:35:22;24.65;;;12.02;;
21492;SDS011;10908;50.690;4.400;2022-12-07T09:37:48;21.10;;;10.85;;
21492;SDS011;10908;50.690;4.400;2022-12-07T09:40:14;19.45;;;10.07;;
21492;SDS011;10908;50.690;4.400;2022-12-07T09:42:43;19.17;;;10.15;;
21492;SDS011;10908;50.690;4.400;2022-12-07T09:45:34;18.80;;;9.77;;
21492;SDS011;10908;50.690;4.400;2022-12-07T09:48:00;18.83;;;9.70;;
21492;SDS011;10908;50.690;4.400;2022-12-07T09:50:28;26.52;;;10.20;;
21492;SDS011;10908;50.690;4.400;2022-12-07T09:52:56;22.02;;;9.98;;
21492;SDS011;10908;50.690;4.400;2022-12-07T09:55:39;20.23;;;10.20;;
21492;SDS011;10908;50.690;4.400;2022-12-07T09:58:08;18.80;;;10.13;;
21492;SDS011;10908;50.690;4.400;2022-12-07T10:00:44;18.40;;;10.10;;
21492;SDS011;10908;50.690;4.400;2022-12-07T10:03:10;18.55;;;9.88;;
21492;SDS011;10908;50.690;4.400;2022-12-07T10:05:41;18.70;;;9.18;;
21492;SDS011;10908;50.690;4.400;2022-12-07T10:08:13;20.25;;;9.30;;
21492;SDS011;10908;50.690;4.400;2022-12-07T10:10:42;19.73;;;8.60;;
21492;SDS011;10908;50.690;4.400;2022-12-07T10:18:28;18.33;;;6.88;;
21492;SDS011;10908;50.690;4.400;2022-12-07T10:23:34;14.15;;;7.47;;
21492;SDS011;10908;50.690;4.400;2022-12-07T10:26:18;12.90;;;6.43;;
21492;SDS011;10908;50.690;4.400;2022-12-07T10:28:46;13.82;;;6.35;;
21492;SDS011;10908;50.690;4.400;2022-12-07T10:31:17;14.40;;;6.50;;
21492;SDS011;10908;50.690;4.400;2022-12-07T10:36:37;14.82;;;6.95;;
21492;SDS011;10908;50.690;4.400;2022-12-07T10:39:04;12.32;;;6.38;;
21492;SDS011;10908;50.690;4.400;2022-12-07T10:41:35;15.68;;;7.10;;
21492;SDS011;10908;50.690;4.400;2022-12-07T10:44:26;15.52;;;7.55;;
21492;SDS011;10908;50.690;4.400;2022-12-07T10:46:59;18.38;;;8.13;;
21492;SDS011;10908;50.690;4.400;2022-12-07T10:53:09;19.13;;;6.70;;
21492;SDS011;10908;50.690;4.400;2022-12-07T10:55:16;14.63;;;6.38;;
21492;SDS011;10908;50.690;4.400;2022-12-07T10:58:02;15.95;;;6.45;;
21492;SDS011;10908;50.690;4.400;2022-12-07T11:00:39;17.60;;;7.22;;
21492;SDS011;10908;50.690;4.400;2022-12-07T11:19:20;17.10;;;7.47;;
21492;SDS011;10908;50.690;4.400;2022-12-07T11:21:56;18.05;;;8.15;;
21492;SDS011;10908;50.690;4.400;2022-12-07T11:37:58;14.80;;;6.35;;
21492;SDS011;10908;50.690;4.400;2022-12-07T11:40:33;15.93;;;6.70;;
21492;SDS011;10908;50.690;4.400;2022-12-07T11:43:06;18.08;;;6.97;;
21492;SDS011;10908;50.690;4.400;2022-12-07T11:45:52;14.23;;;6.60;;
21492;SDS011;10908;50.690;4.400;2022-12-07T11:48:38;12.73;;;5.85;;
21492;SDS011;10908;50.690;4.400;2022-12-07T11:51:09;18.45;;;8.10;;
21492;SDS011;10908;50.690;4.400;2022-12-07T11:53:44;16.60;;;8.35;;
21492;SDS011;10908;50.690;4.400;2022-12-07T12:01:35;17.83;;;8.85;;
21492;SDS011;10908;50.690;4.400;2022-12-07T12:11:47;13.35;;;5.55;;
21492;SDS011;10908;50.690;4.400;2022-12-07T12:19:44;11.88;;;5.35;;
21492;SDS011;10908;50.690;4.400;2022-12-07T12:22:23;14.93;;;5.90;;
21492;SDS011;10908;50.690;4.400;2022-12-07T12:27:51;12.45;;;5.50;;
21492;SDS011;10908;50.690;4.400;2022-12-07T12:30:25;11.85;;;5.20;;
21492;SDS011;10908;50.690;4.400;2022-12-07T12:33:00;11.38;;;5.10;;
21492;SDS011;10908;50.690;4.400;2022-12-07T12:35:33;13.57;;;5.40;;
21492;SDS011;10908;50.690;4.400;2022-12-07T12:40:49;17.25;;;5.07;;
21492;SDS011;10908;50.690;4.400;2022-12-07T13:01:48;10.35;;;3.78;;
21492;SDS011;10908;50.690;4.400;2022-12-07T13:20:57;7.07;;;2.70;;
21492;SDS011;10908;50.690;4.400;2022-12-07T13:24:09;10.45;;;3.17;;
21492;SDS011;10908;50.690;4.400;2022-12-07T13:31:38;10.20;;;3.10;;
21492;SDS011;10908;50.690;4.400;2022-12-07T13:36:57;8.32;;;3.03;;
21492;SDS011;10908;50.690;4.400;2022-12-07T13:39:24;11.10;;;4.05;;
21492;SDS011;10908;50.690;4.400;2022-12-07T13:41:52;8.35;;;2.80;;
21492;SDS011;10908;50.690;4.400;2022-12-07T13:44:18;11.05;;;3.40;;
21492;SDS011;10908;50.690;4.400;2022-12-07T13:46:59;8.60;;;2.83;;
21492;SDS011;10908;50.690;4.400;2022-12-07T13:51:53;11.75;;;4.03;;
21492;SDS011;10908;50.690;4.400;2022-12-07T13:54:20;9.30;;;3.70;;
21492;SDS011;10908;50.690;4.400;2022-12-07T13:56:48;11.70;;;4.22;;
21492;SDS011;10908;50.690;4.400;2022-12-07T13:59:18;9.98;;;4.30;;
21492;SDS011;10908;50.690;4.400;2022-12-07T14:01:47;9.30;;;3.40;;
21492;SDS011;10908;50.690;4.400;2022-12-07T14:04:29;11.00;;;4.05;;
21492;SDS011;10908;50.690;4.400;2022-12-07T14:09:55;9.95;;;3.40;;
21492;SDS011;10908;50.690;4.400;2022-12-07T14:12:23;10.38;;;3.70;;
21492;SDS011;10908;50.690;4.400;2022-12-07T14:14:50;13.07;;;4.03;;
21492;SDS011;10908;50.690;4.400;2022-12-07T14:17:20;10.60;;;2.92;;
21492;SDS011;10908;50.690;4.400;2022-12-07T14:19:49;9.20;;;3.20;;
21492;SDS011;10908;50.690;4.400;2022-12-07T14:22:24;7.32;;;3.33;;
21492;SDS011;10908;50.690;4.400;2022-12-07T14:24:50;10.35;;;2.95;;
21492;SDS011;10908;50.690;4.400;2022-12-07T14:27:20;10.75;;;3.70;;
21492;SDS011;10908;50.690;4.400;2022-12-07T14:29:47;10.85;;;3.63;;
21492;SDS011;10908;50.690;4.400;2022-12-07T14:35:11;7.95;;;3.15;;
21492;SDS011;10908;50.690;4.400;2022-12-07T14:37:39;6.40;;;3.03;;
21492;SDS011;10908;50.690;4.400;2022-12-07T14:40:06;11.43;;;3.08;;
21492;SDS011;10908;50.690;4.400;2022-12-07T14:42:32;9.52;;;3.15;;
21492;SDS011;10908;50.690;4.400;2022-12-07T14:44:59;10.52;;;3.50;;
21492;SDS011;10908;50.690;4.400;2022-12-07T14:47:25;9.38;;;3.20;;
21492;SDS011;10908;50.690;4.400;2022-12-07T14:49:51;9.00;;;3.10;;
21492;SDS011;10908;50.690;4.400;2022-12-07T14:52:21;9.75;;;3.22;;
21492;SDS011;10908;50.690;4.400;2022-12-07T14:54:51;10.65;;;3.53;;
21492;SDS011;10908;50.690;4.400;2022-12-07T14:57:17;8.35;;;3.20;;
21492;SDS011;10908;50.690;4.400;2022-12-07T14:59:43;9.27;;;3.40;;
21492;SDS011;10908;50.690;4.400;2022-12-07T15:02:10;9.52;;;3.47;;
21492;SDS011;10908;50.690;4.400;2022-12-07T15:04:37;13.90;;;3.55;;
21492;SDS011;10908;50.690;4.400;2022-12-07T15:07:04;11.43;;;3.55;;
21492;SDS011;10908;50.690;4.400;2022-12-07T15:09:31;9.93;;;3.30;;
21492;SDS011;10908;50.690;4.400;2022-12-07T15:11:56;9.13;;;3.35;;
21492;SDS011;10908;50.690;4.400;2022-12-07T15:14:22;10.23;;;3.85;;
21492;SDS011;10908;50.690;4.400;2022-12-07T15:16:47;16.38;;;5.68;;
21492;SDS011;10908;50.690;4.400;2022-12-07T15:19:20;12.73;;;6.18;;
21492;SDS011;10908;50.690;4.400;2022-12-07T15:21:49;10.18;;;4.68;;
21492;SDS011;10908;50.690;4.400;2022-12-07T15:24:15;10.75;;;5.28;;
21492;SDS011;10908;50.690;4.400;2022-12-07T15:26:40;11.85;;;6.20;;
21492;SDS011;10908;50.690;4.400;2022-12-07T15:29:07;10.07;;;5.47;;
21492;SDS011;10908;50.690;4.400;2022-12-07T15:31:33;13.40;;;4.30;;
21492;SDS011;10908;50.690;4.400;2022-12-07T15:33:59;11.35;;;4.22;;
21492;SDS011;10908;50.690;4.400;2022-12-07T15:36:26;10.00;;;4.60;;
21492;SDS011;10908;50.690;4.400;2022-12-07T15:38:53;11.13;;;4.93;;
21492;SDS011;10908;50.690;4.400;2022-12-07T15:41:19;9.35;;;3.80;;
21492;SDS011;10908;50.690;4.400;2022-12-07T15:56:08;8.13;;;3.67;;
21492;SDS011;10908;50.690;4.400;2022-12-07T15:58:34;7.75;;;3.40;;
21492;SDS011;10908;50.690;4.400;2022-12-07T16:01:00;11.38;;;4.53;;
21492;SDS011;10908;50.690;4.400;2022-12-07T16:03:26;12.65;;;5.97;;
21492;SDS011;10908;50.690;4.400;2022-12-07T16:05:52;18.70;;;9.40;;
21492;SDS011;10908;50.690;4.400;2022-12-07T16:08:18;8.30;;;3.67;;
21492;SDS011;10908;50.690;4.400;2022-12-07T16:10:44;12.68;;;5.38;;
21492;SDS011;10908;50.690;4.400;2022-12-07T16:13:10;10.60;;;4.30;;
21492;SDS011;10908;50.690;4.400;2022-12-07T16:15:40;9.63;;;3.53;;
21492;SDS011;10908;50.690;4.400;2022-12-07T16:18:05;8.85;;;3.60;;
21492;SDS011;10908;50.690;4.400;2022-12-07T16:20:31;9.20;;;3.10;;
21492;SDS011;10908;50.690;4.400;2022-12-07T16:22:57;8.20;;;2.97;;
21492;SDS011;10908;50.690;4.400;2022-12-07T16:25:23;8.85;;;2.88;;
21492;SDS011;10908;50.690;4.400;2022-12-07T16:27:48;9.02;;;3.20;;
21492;SDS011;10908;50.690;4.400;2022-12-07T16:30:15;9.65;;;3.70;;
21492;SDS011;10908;50.690;4.400;2022-12-07T16:32:41;6.43;;;3.38;;
21492;SDS011;10908;50.690;4.400;2022-12-07T16:35:07;7.30;;;3.15;;
21492;SDS011;10908;50.690;4.400;2022-12-07T16:37:33;8.77;;;3.22;;
21492;SDS011;10908;50.690;4.400;2022-12-07T16:39:58;6.88;;;3.22;;
21492;SDS011;10908;50.690;4.400;2022-12-07T16:42:24;6.97;;;3.33;;
21492;SDS011;10908;50.690;4.400;2022-12-07T16:44:50;8.88;;;3.30;;
21492;SDS011;10908;50.690;4.400;2022-12-07T16:47:15;8.23;;;3.47;;
21492;SDS011;10908;50.690;4.400;2022-12-07T16:49:42;6.90;;;2.92;;
21492;SDS011;10908;50.690;4.400;2022-12-07T16:52:07;6.82;;;3.08;;
21492;SDS011;10908;50.690;4.400;2022-12-07T16:54:33;10.05;;;3.45;;
21492;SDS011;10908;50.690;4.400;2022-12-07T16:56:59;9.70;;;3.35;;
21492;SDS011;10908;50.690;4.400;2022-12-07T16:59:25;10.45;;;3.85;;
21492;SDS011;10908;50.690;4.400;2022-12-07T17:01:50;8.60;;;3.58;;
21492;SDS011;10908;50.690;4.400;2022-12-07T17:04:16;7.85;;;3.38;;
21492;SDS011;10908;50.690;4.400;2022-12-07T17:06:42;6.22;;;2.30;;
21492;SDS011;10908;50.690;4.400;2022-12-07T17:09:07;8.43;;;2.40;;
21492;SDS011;10908;50.690;4.400;2022-12-07T17:11:35;6.88;;;2.20;;
21492;SDS011;10908;50.690;4.400;2022-12-07T17:14:00;10.75;;;3.20;;
21492;SDS011;10908;50.690;4.400;2022-12-07T17:16:45;12.57;;;3.55;;
21492;SDS011;10908;50.690;4.400;2022-12-07T17:19:12;7.45;;;3.03;;
21492;SDS011;10908;50.690;4.400;2022-12-07T17:21:40;9.48;;;3.47;;
21492;SDS011;10908;50.690;4.400;2022-12-07T17:24:08;9.80;;;3.70;;
21492;SDS011;10908;50.690;4.400;2022-12-07T17:26:34;13.82;;;4.30;;